createdAt,value
2019-04-26T00:00:46.688Z,77.89
2019-04-26T00:01:45.524Z,77.48
2019-04-26T00:02:45.537Z,77.37
2019-04-26T00:03:45.490Z,77.78
2019-04-26T00:04:46.591Z,78.09
2019-04-26T00:05:45.480Z,78.09
2019-04-26T00:06:45.594Z,78.60
2019-04-26T00:07:45.490Z,78.19
2019-04-26T00:08:45.603Z,78.80
2019-04-26T00:09:45.456Z,79.11
2019-04-26T00:10:45.600Z,80.13
2019-04-26T00:11:45.404Z,79.82
2019-04-26T00:12:45.597Z,79.72
2019-04-26T00:13:45.419Z,79.72
2019-04-26T00:14:45.383Z,79.72
2019-04-26T00:15:45.390Z,79.35
2019-04-26T00:16:45.543Z,79.75
2019-04-26T00:17:45.397Z,79.96
2019-04-26T00:18:45.481Z,79.66
2019-04-26T00:19:45.342Z,79.55
2019-04-26T00:20:45.326Z,79.55
2019-04-26T00:21:45.316Z,80.16
2019-04-26T00:22:46.387Z,79.86
2019-04-26T00:23:45.281Z,79.86
2019-04-26T00:24:45.348Z,80.07
2019-04-26T00:25:45.276Z,79.86
2019-04-26T00:26:45.260Z,80.07
2019-04-26T00:27:45.286Z,80.27
2019-04-26T00:28:45.414Z,80.61
2019-04-26T00:29:45.227Z,80.51
2019-04-26T00:30:45.296Z,80.20
2019-04-26T00:31:45.211Z,80.51
2019-04-26T00:32:46.319Z,80.91
2019-04-26T00:33:45.186Z,80.82
2019-04-26T00:34:45.186Z,80.82
2019-04-26T00:35:47.903Z,80.96
2019-04-26T00:36:45.285Z,81.67
2019-04-26T00:37:45.165Z,81.57
2019-04-26T00:38:45.232Z,81.67
2019-04-26T00:39:45.124Z,81.98
2019-04-26T00:40:45.305Z,81.77
2019-04-26T00:41:45.125Z,81.67
2019-04-26T00:42:45.296Z,81.57
2019-04-26T00:43:45.115Z,81.37
2019-04-26T00:44:45.205Z,81.81
2019-04-26T00:45:45.048Z,82.53
2019-04-26T00:46:45.237Z,82.22
2019-04-26T00:47:45.082Z,82.22
2019-04-26T00:48:45.121Z,82.01
2019-04-26T00:49:45.015Z,82.73
2019-04-26T00:50:45.160Z,82.77
2019-04-26T00:51:45.095Z,82.46
2019-04-26T00:52:45.114Z,83.18
2019-04-26T00:53:45.074Z,83.38
2019-04-26T00:54:44.992Z,83.52
2019-04-26T00:55:45.084Z,83.59
2019-04-26T00:56:44.939Z,84.34
2019-04-26T00:57:44.947Z,83.83
2019-04-26T00:58:44.903Z,83.87
2019-04-26T00:59:45.014Z,84.55
2019-04-26T01:00:44.919Z,85.16
2019-04-26T01:01:46.067Z,84.99
2019-04-26T01:02:44.917Z,86.02
2019-04-26T01:03:45.950Z,85.10
2019-04-26T01:04:44.883Z,85.50
2019-04-26T01:05:44.947Z,85.50
2019-04-26T01:06:44.872Z,85.30
2019-04-26T01:07:45.010Z,86.02
2019-04-26T01:08:44.820Z,86.02
2019-04-26T01:09:44.978Z,85.64
2019-04-26T01:10:44.792Z,85.91
2019-04-26T01:11:44.907Z,85.34
2019-04-26T01:12:44.870Z,85.91
2019-04-26T01:13:44.906Z,86.94
2019-04-26T01:14:44.734Z,86.05
2019-04-26T01:15:44.828Z,86.05
2019-04-26T01:16:44.818Z,86.67
2019-04-26T01:17:44.775Z,87.29
2019-04-26T01:18:44.833Z,86.98
2019-04-26T01:19:44.721Z,87.08
2019-04-26T01:20:44.841Z,87.22
2019-04-26T01:21:44.670Z,87.02
2019-04-26T01:22:44.698Z,87.53
2019-04-26T01:23:44.693Z,87.02
2019-04-26T01:24:44.776Z,86.91
2019-04-26T01:25:44.639Z,87.53
2019-04-26T01:26:44.785Z,87.98
2019-04-26T01:27:44.654Z,87.88
2019-04-26T01:28:44.609Z,87.88
2019-04-26T01:29:44.592Z,87.88
2019-04-26T01:30:44.707Z,87.67
2019-04-26T01:31:44.594Z,88.18
2019-04-26T01:32:44.696Z,89.00
2019-04-26T01:33:44.537Z,89.00
2019-04-26T01:34:44.629Z,88.84
2019-04-26T01:35:44.522Z,89.45
2019-04-26T01:36:45.669Z,89.45
2019-04-26T01:37:44.538Z,89.56
2019-04-26T01:38:45.584Z,89.66
2019-04-26T01:39:44.504Z,89.25
2019-04-26T01:40:46.637Z,89.45
2019-04-26T01:41:44.451Z,89.56
2019-04-26T01:42:44.656Z,90.22
2019-04-26T01:43:44.505Z,90.73
2019-04-26T01:44:44.598Z,91.24
2019-04-26T01:45:44.417Z,91.35
2019-04-26T01:46:44.502Z,90.73
2019-04-26T01:47:44.428Z,92.88
2019-04-26T01:48:44.454Z,92.98
2019-04-26T01:49:44.429Z,92.36
2019-04-26T01:50:44.506Z,92.06
2019-04-26T01:51:44.353Z,92.43
2019-04-26T01:52:44.509Z,93.45
2019-04-26T01:53:44.466Z,94.54
2019-04-26T01:54:44.308Z,93.82
2019-04-26T01:55:44.466Z,93.51
2019-04-26T01:56:44.323Z,92.79
2019-04-26T01:57:44.440Z,92.55
2019-04-26T01:58:44.276Z,92.44
2019-04-26T01:59:44.260Z,91.99
2019-04-26T02:00:44.263Z,91.38
2019-04-26T02:01:45.325Z,91.69
2019-04-26T02:02:44.310Z,91.58
2019-04-26T02:03:44.321Z,91.38
2019-04-26T02:04:44.210Z,90.66
2019-04-26T02:05:44.210Z,91.07
2019-04-26T02:06:44.182Z,90.25
2019-04-26T02:07:44.304Z,91.27
2019-04-26T02:08:44.237Z,90.77
2019-04-26T02:09:44.253Z,90.97
2019-04-26T02:10:44.145Z,90.56
2019-04-26T02:11:44.312Z,91.07
2019-04-26T02:12:44.183Z,91.17
2019-04-26T02:13:44.279Z,90.86
2019-04-26T02:14:44.181Z,90.97
2019-04-26T02:15:44.188Z,90.77
2019-04-26T02:16:44.109Z,90.77
2019-04-26T02:17:44.269Z,91.38
2019-04-26T02:18:44.091Z,90.77
2019-04-26T02:19:44.212Z,90.77
2019-04-26T02:20:44.069Z,90.97
2019-04-26T02:21:44.141Z,90.97
2019-04-26T02:22:44.054Z,90.86
2019-04-26T02:23:44.139Z,91.27
2019-04-26T02:24:44.021Z,91.48
2019-04-26T02:25:45.063Z,91.38
2019-04-26T02:26:44.059Z,91.27
2019-04-26T02:27:44.063Z,90.97
2019-04-26T02:28:43.964Z,91.27
2019-04-26T02:29:44.082Z,90.97
2019-04-26T02:30:44.088Z,91.07
2019-04-26T02:31:43.973Z,91.38
2019-04-26T02:32:44.018Z,91.27
2019-04-26T02:33:43.925Z,90.66
2019-04-26T02:34:44.012Z,91.07
2019-04-26T02:35:43.891Z,91.48
2019-04-26T02:36:57.304Z,91.69
2019-04-26T02:37:44.905Z,91.63
2019-04-26T02:38:43.953Z,91.42
2019-04-26T02:39:43.853Z,91.52
2019-04-26T02:40:44.063Z,92.03
2019-04-26T02:41:43.833Z,92.14
2019-04-26T02:42:45.450Z,92.34
2019-04-26T02:43:43.809Z,91.73
2019-04-26T02:44:43.904Z,92.24
2019-04-26T02:45:43.786Z,92.34
2019-04-26T02:46:43.891Z,92.03
2019-04-26T02:47:43.766Z,92.14
2019-04-26T02:48:43.855Z,92.55
2019-04-26T02:49:43.743Z,92.75
2019-04-26T02:50:43.937Z,92.75
2019-04-26T02:51:43.732Z,92.34
2019-04-26T02:52:43.839Z,92.14
2019-04-26T02:53:43.746Z,92.85
2019-04-26T02:54:43.783Z,92.71
2019-04-26T02:55:43.736Z,92.30
2019-04-26T02:56:43.783Z,92.40
2019-04-26T02:57:43.719Z,92.81
2019-04-26T02:58:43.767Z,92.03
2019-04-26T02:59:43.647Z,92.19
2019-04-26T03:00:43.779Z,92.19
2019-04-26T03:01:43.683Z,91.99
2019-04-26T03:02:43.699Z,92.30
2019-04-26T03:03:43.697Z,92.71
2019-04-26T03:04:43.593Z,93.32
2019-04-26T03:05:43.719Z,92.50
2019-04-26T03:06:43.564Z,92.60
2019-04-26T03:07:43.581Z,92.71
2019-04-26T03:08:43.564Z,92.81
2019-04-26T03:09:44.670Z,92.50
2019-04-26T03:10:43.706Z,92.91
2019-04-26T03:11:44.578Z,92.91
2019-04-26T03:12:43.549Z,93.37
2019-04-26T03:13:43.790Z,93.47
2019-04-26T03:14:43.484Z,93.16
2019-04-26T03:15:43.582Z,93.16
2019-04-26T03:16:43.464Z,93.06
2019-04-26T03:17:43.510Z,93.43
2019-04-26T03:18:44.090Z,93.26
2019-04-26T03:19:44.518Z,93.63
2019-04-26T03:20:43.435Z,93.43
2019-04-26T03:21:43.524Z,93.52
2019-04-26T03:22:43.433Z,93.93
2019-04-26T03:23:57.067Z,93.32
2019-04-26T03:24:44.361Z,93.43
2019-04-26T03:25:43.437Z,93.43
2019-04-26T03:26:43.490Z,93.43
2019-04-26T03:27:43.654Z,93.32
2019-04-26T03:28:43.850Z,93.63
2019-04-26T03:29:43.819Z,93.93
2019-04-26T03:30:51.071Z,93.32
2019-04-26T03:31:53.015Z,93.01
2019-04-26T03:32:50.707Z,93.01
2019-04-26T03:33:52.435Z,92.91
2019-04-26T03:34:53.459Z,93.22
2019-04-26T03:35:55.923Z,93.32
2019-04-26T03:36:44.488Z,93.22
2019-04-26T03:37:44.546Z,93.43
2019-04-26T03:38:43.638Z,93.52
2019-04-26T03:39:44.509Z,93.73
2019-04-26T03:40:44.565Z,93.63
2019-04-26T03:41:44.423Z,93.12
2019-04-26T03:42:44.120Z,93.48
2019-04-26T03:43:44.516Z,94.04
2019-04-26T03:44:44.228Z,93.73
2019-04-26T03:45:44.594Z,93.73
2019-04-26T03:46:45.157Z,93.84
2019-04-26T03:47:45.537Z,93.73
2019-04-26T03:48:44.825Z,93.73
2019-04-26T03:49:44.344Z,93.63
2019-04-26T03:50:44.901Z,93.63
2019-04-26T03:51:44.905Z,93.63
2019-04-26T03:52:44.089Z,93.73
2019-04-26T03:53:44.420Z,92.81
2019-04-26T03:54:43.136Z,93.26
2019-04-26T03:55:43.691Z,93.16
2019-04-26T03:56:43.584Z,93.16
2019-04-26T03:57:44.704Z,93.47
2019-04-26T03:58:43.639Z,94.49
2019-04-26T03:59:44.248Z,93.88
2019-04-26T04:00:45.023Z,93.98
2019-04-26T04:01:45.007Z,93.88
2019-04-26T04:02:45.551Z,93.77
2019-04-26T04:03:45.390Z,94.08
2019-04-26T04:04:44.802Z,94.29
2019-04-26T04:05:44.225Z,93.88
2019-04-26T04:06:58.102Z,94.59
2019-04-26T04:07:49.399Z,94.49
2019-04-26T04:08:45.765Z,94.59
2019-04-26T04:09:42.940Z,94.80
2019-04-26T04:10:44.142Z,94.80
2019-04-26T04:11:44.324Z,94.59
2019-04-26T04:12:51.757Z,94.49
2019-04-26T04:13:46.760Z,94.80
2019-04-26T04:14:45.091Z,94.70
2019-04-26T04:15:44.704Z,94.80
2019-04-26T04:16:43.683Z,95.00
2019-04-26T04:17:45.410Z,95.31
2019-04-26T04:18:43.865Z,94.85
2019-04-26T04:19:43.979Z,94.85
2019-04-26T04:20:44.399Z,95.37
2019-04-26T04:21:44.508Z,94.55
2019-04-26T04:22:43.922Z,94.34
2019-04-26T04:23:43.513Z,94.45
2019-04-26T04:24:44.630Z,94.20
2019-04-26T04:25:44.270Z,94.04
2019-04-26T04:26:43.450Z,94.14
2019-04-26T04:27:43.893Z,93.79
2019-04-26T04:28:44.525Z,94.40
2019-04-26T04:29:50.029Z,93.73
2019-04-26T04:30:45.428Z,93.79
2019-04-26T04:31:44.340Z,93.84
2019-04-26T04:32:44.308Z,94.10
2019-04-26T04:33:43.732Z,94.30
2019-04-26T04:34:43.973Z,94.34
2019-04-26T04:35:45.343Z,94.20
2019-04-26T04:36:45.867Z,94.20
2019-04-26T04:38:01.723Z,94.14
2019-04-26T04:38:44.697Z,94.10
2019-04-26T04:39:44.402Z,94.10
2019-04-26T04:40:42.739Z,94.10
2019-04-26T04:41:43.013Z,94.20
2019-04-26T04:42:43.612Z,94.51
2019-04-26T04:43:44.352Z,94.30
2019-04-26T04:44:44.381Z,94.40
2019-04-26T04:45:44.031Z,94.20
2019-04-26T04:46:43.854Z,94.20
2019-04-26T04:47:45.115Z,94.30
2019-04-26T04:48:44.563Z,94.30
2019-04-26T04:49:44.942Z,94.30
2019-04-26T04:50:43.157Z,94.60
2019-04-26T04:51:44.192Z,94.20
2019-04-26T04:52:43.252Z,94.10
2019-04-26T04:53:43.445Z,94.40
2019-04-26T04:54:43.215Z,94.30
2019-04-26T04:55:44.455Z,93.99
2019-04-26T04:56:43.529Z,94.30
2019-04-26T04:57:43.870Z,93.69
2019-04-26T04:58:43.602Z,93.69
2019-04-26T04:59:42.439Z,93.59
2019-04-26T05:00:43.077Z,93.59
2019-04-26T05:01:42.853Z,93.48
2019-04-26T05:02:43.454Z,93.69
2019-04-26T05:03:43.503Z,93.48
2019-04-26T05:04:42.571Z,93.79
2019-04-26T05:05:43.476Z,93.59
2019-04-26T05:06:42.826Z,93.38
2019-04-26T05:07:43.842Z,93.48
2019-04-26T05:08:42.911Z,93.38
2019-04-26T05:09:43.900Z,93.38
2019-04-26T05:10:44.192Z,93.48
2019-04-26T05:11:43.364Z,93.38
2019-04-26T05:12:42.240Z,93.59
2019-04-26T05:13:42.314Z,94.20
2019-04-26T05:14:42.227Z,94.10
2019-04-26T05:15:44.565Z,94.20
2019-04-26T05:16:42.206Z,93.79
2019-04-26T05:17:42.247Z,93.79
2019-04-26T05:18:42.159Z,94.10
2019-04-26T05:19:42.246Z,94.20
2019-04-26T05:20:42.177Z,94.56
2019-04-26T05:21:42.238Z,93.69
2019-04-26T05:22:42.119Z,93.44
2019-04-26T05:23:42.174Z,93.44
2019-04-26T05:24:42.096Z,93.03
2019-04-26T05:25:42.179Z,92.72
2019-04-26T05:26:42.080Z,92.52
2019-04-26T05:27:42.294Z,92.72
2019-04-26T05:28:42.097Z,92.01
2019-04-26T05:29:42.214Z,92.68
2019-04-26T05:30:42.069Z,92.42
2019-04-26T05:31:42.230Z,92.21
2019-04-26T05:32:42.041Z,91.96
2019-04-26T05:33:42.178Z,92.07
2019-04-26T05:34:42.171Z,91.66
2019-04-26T05:35:41.981Z,91.70
2019-04-26T05:36:42.166Z,91.56
2019-04-26T05:37:41.960Z,91.56
2019-04-26T05:38:42.135Z,90.84
2019-04-26T05:39:41.960Z,90.94
2019-04-26T05:40:41.938Z,90.33
2019-04-26T05:41:41.909Z,91.05
2019-04-26T05:42:42.102Z,90.84
2019-04-26T05:43:41.902Z,90.94
2019-04-26T05:44:42.069Z,91.05
2019-04-26T05:45:41.868Z,90.90
2019-04-26T05:46:41.884Z,90.74
2019-04-26T05:47:41.854Z,91.31
2019-04-26T05:48:42.032Z,91.11
2019-04-26T05:49:41.829Z,90.49
2019-04-26T05:50:42.015Z,89.98
2019-04-26T05:51:41.805Z,91.11
2019-04-26T05:52:41.822Z,90.08
2019-04-26T05:53:41.853Z,89.88
2019-04-26T05:54:41.968Z,89.88
2019-04-26T05:55:41.785Z,90.08
2019-04-26T05:56:41.885Z,90.19
2019-04-26T05:57:41.769Z,89.78
2019-04-26T05:58:41.761Z,89.98
2019-04-26T05:59:41.716Z,90.19
2019-04-26T06:00:41.902Z,89.78
2019-04-26T06:01:41.758Z,89.67
2019-04-26T06:02:41.823Z,89.26
2019-04-26T06:03:41.683Z,89.23
2019-04-26T06:04:41.677Z,89.23
2019-04-26T06:05:41.659Z,89.02
2019-04-26T06:06:42.776Z,89.12
2019-04-26T06:07:41.663Z,88.71
2019-04-26T06:08:41.752Z,88.00
2019-04-26T06:09:41.624Z,88.82
2019-04-26T06:10:41.632Z,88.20
2019-04-26T06:11:41.583Z,88.71
2019-04-26T06:12:41.643Z,88.00
2019-04-26T06:13:41.582Z,88.10
2019-04-26T06:14:41.700Z,87.59
2019-04-26T06:15:41.540Z,87.70
2019-04-26T06:16:41.586Z,87.53
2019-04-26T06:17:41.582Z,87.59
2019-04-26T06:18:41.730Z,87.53
2019-04-26T06:19:41.514Z,87.53
2019-04-26T06:20:41.559Z,87.59
2019-04-26T06:21:41.484Z,86.91
2019-04-26T06:22:41.545Z,86.71
2019-04-26T06:23:41.472Z,87.23
2019-04-26T06:24:41.596Z,87.53
2019-04-26T06:25:41.452Z,87.84
2019-04-26T06:26:41.473Z,87.43
2019-04-26T06:27:41.450Z,86.82
2019-04-26T06:28:41.605Z,86.67
2019-04-26T06:29:41.454Z,87.38
2019-04-26T06:30:45.674Z,86.47
2019-04-26T06:31:41.378Z,85.75
2019-04-26T06:32:41.731Z,86.47
2019-04-26T06:33:41.365Z,87.18
2019-04-26T06:34:41.532Z,85.65
2019-04-26T06:35:41.364Z,85.69
2019-04-26T06:36:41.585Z,85.55
2019-04-26T06:37:41.342Z,85.86
2019-04-26T06:38:44.123Z,85.14
2019-04-26T06:39:41.296Z,84.83
2019-04-26T06:40:42.097Z,85.10
2019-04-26T06:41:41.294Z,85.14
2019-04-26T06:42:41.358Z,83.61
2019-04-26T06:43:41.261Z,84.83
2019-04-26T06:44:43.438Z,84.94
2019-04-26T06:45:41.228Z,85.18
2019-04-26T06:46:41.426Z,86.47
2019-04-26T06:47:41.258Z,87.29
2019-04-26T06:48:42.368Z,86.47
2019-04-26T06:49:41.189Z,85.75
2019-04-26T06:50:41.347Z,85.04
2019-04-26T06:51:41.172Z,86.36
2019-04-26T06:52:41.174Z,85.86
2019-04-26T06:53:41.141Z,85.45
2019-04-26T06:54:41.258Z,85.55
2019-04-26T06:55:41.124Z,85.04
2019-04-26T06:56:41.266Z,85.55
2019-04-26T06:57:41.191Z,85.89
2019-04-26T06:58:41.103Z,85.75
2019-04-26T06:59:41.096Z,85.86
2019-04-26T07:00:41.186Z,87.08
2019-04-26T07:01:41.061Z,87.29
2019-04-26T07:02:41.262Z,85.89
2019-04-26T07:03:41.041Z,86.51
2019-04-26T07:04:42.019Z,86.91
2019-04-26T07:05:41.065Z,86.88
2019-04-26T07:06:41.129Z,87.23
2019-04-26T07:07:41.033Z,86.51
2019-04-26T07:08:42.173Z,87.53
2019-04-26T07:09:40.970Z,86.76
2019-04-26T07:10:40.960Z,86.76
2019-04-26T07:11:40.985Z,88.18
2019-04-26T07:12:41.139Z,87.98
2019-04-26T07:13:40.994Z,87.77
2019-04-26T07:14:41.082Z,88.79
2019-04-26T07:15:40.906Z,89.31
2019-04-26T07:16:40.901Z,89.00
2019-04-26T07:17:40.889Z,89.20
2019-04-26T07:18:41.090Z,89.11
2019-04-26T07:19:40.910Z,89.37
2019-04-26T07:20:41.036Z,89.31
2019-04-26T07:21:40.843Z,89.78
2019-04-26T07:22:40.848Z,89.78
2019-04-26T07:23:40.830Z,91.00
2019-04-26T07:24:41.901Z,90.55
2019-04-26T07:25:40.802Z,89.94
2019-04-26T07:26:40.998Z,89.53
2019-04-26T07:27:40.793Z,89.32
2019-04-26T07:28:40.773Z,88.92
2019-04-26T07:29:40.939Z,89.32
2019-04-26T07:30:40.851Z,88.92
2019-04-26T07:31:40.886Z,89.12
2019-04-26T07:32:40.730Z,89.32
2019-04-26T07:33:40.912Z,89.73
2019-04-26T07:34:40.720Z,89.63
2019-04-26T07:35:40.889Z,90.04
2019-04-26T07:36:40.692Z,91.12
2019-04-26T07:37:40.999Z,90.71
2019-04-26T07:38:40.739Z,90.61
2019-04-26T07:39:40.877Z,90.55
2019-04-26T07:40:40.667Z,91.47
2019-04-26T07:41:40.765Z,91.47
2019-04-26T07:42:40.807Z,91.47
2019-04-26T07:43:40.695Z,91.27
2019-04-26T07:44:40.590Z,90.96
2019-04-26T07:45:40.642Z,90.49
2019-04-26T07:46:40.599Z,91.52
2019-04-26T07:47:40.685Z,92.69
2019-04-26T07:48:40.618Z,92.23
2019-04-26T07:49:40.621Z,92.94
2019-04-26T07:50:40.588Z,92.43
2019-04-26T07:51:40.549Z,92.84
2019-04-26T07:52:40.613Z,92.17
2019-04-26T07:53:40.584Z,92.68
2019-04-26T07:54:40.571Z,92.37
2019-04-26T07:55:40.727Z,93.85
2019-04-26T07:56:40.470Z,93.24
2019-04-26T07:57:40.510Z,93.24
2019-04-26T07:58:40.481Z,93.24
2019-04-26T07:59:40.509Z,93.03
2019-04-26T08:00:44.907Z,94.15
2019-04-26T08:01:41.439Z,94.06
2019-04-26T08:02:40.441Z,93.54
2019-04-26T08:03:40.395Z,93.33
2019-04-26T08:04:40.455Z,93.54
2019-04-26T08:05:40.378Z,94.15
2019-04-26T08:06:40.478Z,94.46
2019-04-26T08:07:40.403Z,94.06
2019-04-26T08:08:40.484Z,93.74
2019-04-26T08:09:40.345Z,93.95
2019-04-26T08:10:40.395Z,93.85
2019-04-26T08:11:40.309Z,94.06
2019-04-26T08:12:40.494Z,93.13
2019-04-26T08:13:40.378Z,93.33
2019-04-26T08:14:40.434Z,94.06
2019-04-26T08:15:40.325Z,95.03
2019-04-26T08:16:42.539Z,95.48
2019-04-26T08:17:40.300Z,94.46
2019-04-26T08:18:40.473Z,94.36
2019-04-26T08:19:40.297Z,94.93
2019-04-26T08:20:40.257Z,94.93
2019-04-26T08:21:42.774Z,95.23
2019-04-26T08:22:41.889Z,95.13
2019-04-26T08:23:42.216Z,95.23
2019-04-26T08:24:40.299Z,94.77
2019-04-26T08:25:40.174Z,93.65
2019-04-26T08:26:40.323Z,94.36
2019-04-26T08:27:40.206Z,94.77
2019-04-26T08:28:40.223Z,95.54
2019-04-26T08:29:40.134Z,94.56
2019-04-26T08:30:44.760Z,95.07
2019-04-26T08:31:40.157Z,94.97
2019-04-26T08:32:42.294Z,95.44
2019-04-26T08:33:40.480Z,95.69
2019-04-26T08:34:41.196Z,95.44
2019-04-26T08:35:40.066Z,94.56
2019-04-26T08:36:40.185Z,94.87
2019-04-26T08:37:40.090Z,95.28
2019-04-26T08:38:40.149Z,94.92
2019-04-26T08:39:45.543Z,95.48
2019-04-26T08:40:41.149Z,95.02
2019-04-26T08:41:40.238Z,94.92
2019-04-26T08:42:41.108Z,95.63
2019-04-26T08:43:39.986Z,96.55
2019-04-26T08:44:39.977Z,96.41
2019-04-26T08:45:40.554Z,96.96
2019-04-26T08:46:41.075Z,97.06
2019-04-26T08:47:40.128Z,97.78
2019-04-26T08:48:48.765Z,97.47
2019-04-26T08:49:40.095Z,97.06
2019-04-26T08:50:42.188Z,96.96
2019-04-26T08:51:39.901Z,96.96
2019-04-26T08:52:43.238Z,97.06
2019-04-26T08:53:39.860Z,97.98
2019-04-26T08:54:41.029Z,97.52
2019-04-26T08:55:39.854Z,98.33
2019-04-26T08:56:39.867Z,98.49
2019-04-26T08:57:39.870Z,98.54
2019-04-26T08:58:43.335Z,98.90
2019-04-26T08:59:39.970Z,99.15
2019-04-26T09:00:47.842Z,98.70
2019-04-26T09:01:42.066Z,99.31
2019-04-26T09:02:39.881Z,99.36
2019-04-26T09:03:39.833Z,99.21
2019-04-26T09:04:39.885Z,99.82
2019-04-26T09:05:39.745Z,99.26
2019-04-26T09:06:39.884Z,98.70
2019-04-26T09:07:39.735Z,98.74
2019-04-26T09:08:43.602Z,98.74
2019-04-26T09:09:40.712Z,98.80
2019-04-26T09:10:43.277Z,98.90
2019-04-26T09:11:39.666Z,99.01
2019-04-26T09:12:54.791Z,99.31
2019-04-26T09:13:39.661Z,98.55
2019-04-26T09:14:39.677Z,98.75
2019-04-26T09:15:40.696Z,98.96
2019-04-26T09:16:50.137Z,98.91
2019-04-26T09:17:40.610Z,98.20
2019-04-26T09:18:43.510Z,97.79
2019-04-26T09:19:39.622Z,97.58
2019-04-26T09:20:42.943Z,97.49
2019-04-26T09:21:40.122Z,97.64
2019-04-26T09:22:39.549Z,97.85
2019-04-26T09:23:40.533Z,96.92
2019-04-26T09:24:39.560Z,97.03
2019-04-26T09:25:39.803Z,97.44
2019-04-26T09:26:42.491Z,97.54
2019-04-26T09:27:40.666Z,97.64
2019-04-26T09:28:39.500Z,97.64
2019-04-26T09:29:39.660Z,98.15
2019-04-26T09:30:42.443Z,98.05
2019-04-26T09:31:39.577Z,97.95
2019-04-26T09:32:39.464Z,97.85
2019-04-26T09:33:39.581Z,97.58
2019-04-26T09:34:41.341Z,97.79
2019-04-26T09:35:39.737Z,97.74
2019-04-26T09:36:39.456Z,96.30
2019-04-26T09:37:39.590Z,96.96
2019-04-26T09:38:40.558Z,96.66
2019-04-26T09:39:41.588Z,97.67
2019-04-26T09:40:40.449Z,98.08
2019-04-26T09:41:39.392Z,97.78
2019-04-26T09:42:40.920Z,97.78
2019-04-26T09:43:39.362Z,97.27
2019-04-26T09:44:41.336Z,97.16
2019-04-26T09:45:39.478Z,97.02
2019-04-26T09:46:39.332Z,96.86
2019-04-26T09:47:39.483Z,96.67
2019-04-26T09:48:39.282Z,96.92
2019-04-26T09:49:41.123Z,96.15
2019-04-26T09:50:39.412Z,95.34
2019-04-26T09:51:40.424Z,95.09
2019-04-26T09:52:39.611Z,94.89
2019-04-26T09:53:39.551Z,95.56
2019-04-26T09:54:39.361Z,94.43
2019-04-26T09:55:39.211Z,94.79
2019-04-26T09:56:39.228Z,94.45
2019-04-26T09:57:39.195Z,94.65
2019-04-26T09:58:39.368Z,94.71
2019-04-26T09:59:40.051Z,93.24
2019-04-26T10:00:40.402Z,94.15
2019-04-26T10:01:39.171Z,93.33
2019-04-26T10:02:39.148Z,93.59
2019-04-26T10:03:39.132Z,93.07
2019-04-26T10:04:40.368Z,93.59
2019-04-26T10:05:39.123Z,92.97
2019-04-26T10:06:39.221Z,92.16
2019-04-26T10:07:39.236Z,91.91
2019-04-26T10:08:43.283Z,93.50
2019-04-26T10:09:40.048Z,92.79
2019-04-26T10:10:39.302Z,92.07
2019-04-26T10:11:39.617Z,90.48
2019-04-26T10:12:39.241Z,89.81
2019-04-26T10:13:39.018Z,91.35
2019-04-26T10:14:38.997Z,91.30
2019-04-26T10:15:39.214Z,92.46
2019-04-26T10:16:42.162Z,91.55
2019-04-26T10:17:39.100Z,92.97
2019-04-26T10:18:38.995Z,92.36
2019-04-26T10:19:38.957Z,92.32
2019-04-26T10:20:38.948Z,91.91
2019-04-26T10:21:38.961Z,91.16
2019-04-26T10:22:39.965Z,90.44
2019-04-26T10:23:38.933Z,89.22
2019-04-26T10:24:39.026Z,89.53
2019-04-26T10:25:38.927Z,89.73
2019-04-26T10:26:40.014Z,90.81
2019-04-26T10:27:40.842Z,90.50
2019-04-26T10:28:38.951Z,90.36
2019-04-26T10:29:38.861Z,89.28
2019-04-26T10:30:42.392Z,89.34
2019-04-26T10:31:38.808Z,88.59
2019-04-26T10:32:38.986Z,85.68
2019-04-26T10:33:38.801Z,87.87
2019-04-26T10:34:42.799Z,86.76
2019-04-26T10:35:39.770Z,84.72
2019-04-26T10:36:38.860Z,86.00
2019-04-26T10:37:39.825Z,84.58
2019-04-26T10:38:38.864Z,84.74
2019-04-26T10:39:38.742Z,83.08
2019-04-26T10:40:38.829Z,84.36
2019-04-26T10:41:38.696Z,82.12
2019-04-26T10:42:38.845Z,81.58
2019-04-26T10:43:38.698Z,81.99
2019-04-26T10:44:39.787Z,82.15
2019-04-26T10:45:38.661Z,80.22
2019-04-26T10:46:38.706Z,77.69
2019-04-26T10:47:39.941Z,80.63
2019-04-26T10:48:41.236Z,79.31
2019-04-26T10:49:38.622Z,80.06
2019-04-26T10:50:40.714Z,79.99
2019-04-26T10:51:41.815Z,79.32
2019-04-26T10:52:39.721Z,79.66
2019-04-26T10:53:38.590Z,80.11
2019-04-26T10:54:41.222Z,79.80
2019-04-26T10:55:38.559Z,81.06
2019-04-26T10:56:38.734Z,78.92
2019-04-26T10:57:38.565Z,79.74
2019-04-26T10:58:38.992Z,79.70
2019-04-26T10:59:39.792Z,78.41
2019-04-26T11:00:39.644Z,79.68
2019-04-26T11:01:38.672Z,81.30
2019-04-26T11:02:38.622Z,80.38
2019-04-26T11:03:38.476Z,82.21
2019-04-26T11:04:41.418Z,83.34
2019-04-26T11:05:38.461Z,82.73
2019-04-26T11:06:38.572Z,81.67
2019-04-26T11:07:38.467Z,82.54
2019-04-26T11:08:38.560Z,82.85
2019-04-26T11:09:38.424Z,82.24
2019-04-26T11:10:47.870Z,79.39
2019-04-26T11:11:39.496Z,79.70
2019-04-26T11:12:43.442Z,77.56
2019-04-26T11:13:38.490Z,79.39
2019-04-26T11:14:39.425Z,78.01
2019-04-26T11:15:38.381Z,79.74
2019-04-26T11:16:41.178Z,79.37
2019-04-26T11:17:38.340Z,78.49
2019-04-26T11:18:38.466Z,80.66
2019-04-26T11:19:38.520Z,79.64
2019-04-26T11:20:41.490Z,80.19
2019-04-26T11:21:39.276Z,80.70
2019-04-26T11:22:39.119Z,81.72
2019-04-26T11:23:41.052Z,83.09
2019-04-26T11:24:40.337Z,82.74
2019-04-26T11:25:38.263Z,83.25
2019-04-26T11:26:38.457Z,82.74
2019-04-26T11:27:40.082Z,82.64
2019-04-26T11:28:41.871Z,80.09
2019-04-26T11:29:38.209Z,81.41
2019-04-26T11:30:39.328Z,82.13
2019-04-26T11:31:38.174Z,81.45
2019-04-26T11:32:38.277Z,82.74
2019-04-26T11:33:44.674Z,82.74
2019-04-26T11:34:39.378Z,80.29
2019-04-26T11:35:38.155Z,82.40
2019-04-26T11:36:41.788Z,82.70
2019-04-26T11:37:38.127Z,81.88
2019-04-26T11:38:38.254Z,81.17
2019-04-26T11:39:40.438Z,82.35
2019-04-26T11:40:38.170Z,82.09
2019-04-26T11:41:39.125Z,81.88
2019-04-26T11:42:38.273Z,82.60
2019-04-26T11:43:38.678Z,81.38
2019-04-26T11:44:38.197Z,81.65
2019-04-26T11:45:38.043Z,79.64
2019-04-26T11:46:44.833Z,80.05
2019-04-26T11:47:54.269Z,82.09
2019-04-26T11:48:38.990Z,81.88
2019-04-26T11:49:41.550Z,80.97
2019-04-26T11:50:37.975Z,80.29
2019-04-26T11:51:37.978Z,80.29
2019-04-26T11:52:38.162Z,81.11
2019-04-26T11:53:40.634Z,81.93
2019-04-26T11:54:40.039Z,81.31
2019-04-26T11:55:37.919Z,81.82
2019-04-26T11:56:38.861Z,82.29
2019-04-26T11:57:40.020Z,81.79
2019-04-26T11:58:37.983Z,82.50
2019-04-26T11:59:37.875Z,82.56
2019-04-26T12:00:39.985Z,80.93
2019-04-26T12:01:40.560Z,80.32
2019-04-26T12:02:38.015Z,80.90
2019-04-26T12:03:37.829Z,80.69
2019-04-26T12:04:37.887Z,79.47
2019-04-26T12:05:37.850Z,80.29
2019-04-26T12:06:37.928Z,78.72
2019-04-26T12:07:37.833Z,78.01
2019-04-26T12:08:37.807Z,79.80
2019-04-26T12:09:37.763Z,79.90
2019-04-26T12:10:40.443Z,78.55
2019-04-26T12:11:49.065Z,79.25
2019-04-26T12:12:38.794Z,78.81
2019-04-26T12:13:38.782Z,79.22
2019-04-26T12:14:37.734Z,79.02
2019-04-26T12:15:39.161Z,76.54
2019-04-26T12:16:48.156Z,73.94
2019-04-26T12:17:38.707Z,74.95
2019-04-26T12:18:40.216Z,74.85
2019-04-26T12:19:38.655Z,76.78
2019-04-26T12:20:37.734Z,77.05
2019-04-26T12:21:37.639Z,74.55
2019-04-26T12:22:39.467Z,75.02
2019-04-26T12:23:37.619Z,75.67
2019-04-26T12:24:37.770Z,75.02
2019-04-26T12:25:38.736Z,76.14
2019-04-26T12:26:43.023Z,77.22
2019-04-26T12:27:39.779Z,76.81
2019-04-26T12:28:39.976Z,76.71
2019-04-26T12:29:37.694Z,75.35
2019-04-26T12:30:37.604Z,75.05
2019-04-26T12:31:37.666Z,73.93
2019-04-26T12:32:37.575Z,75.35
2019-04-26T12:33:39.070Z,76.03
2019-04-26T12:34:38.621Z,72.24
2019-04-26T12:35:37.605Z,72.14
2019-04-26T12:36:37.615Z,72.24
2019-04-26T12:37:37.508Z,68.73
2019-04-26T12:38:38.554Z,69.74
2019-04-26T12:39:38.303Z,70.39
2019-04-26T12:40:38.429Z,71.84
2019-04-26T12:41:40.709Z,73.43
2019-04-26T12:42:37.641Z,71.80
2019-04-26T12:43:37.446Z,72.11
2019-04-26T12:44:41.123Z,72.75
2019-04-26T12:45:37.405Z,72.31
2019-04-26T12:46:37.483Z,72.31
2019-04-26T12:47:38.561Z,71.73
2019-04-26T12:48:37.405Z,71.06
2019-04-26T12:49:37.361Z,73.09
2019-04-26T12:50:37.812Z,73.06
2019-04-26T12:51:38.413Z,73.26
2019-04-26T12:52:37.607Z,73.97